This is the latest recevied weather packets stored in our database for station/object K7SKM. If no packets are shown the sender has not sent any weather packets the latest 10 day(s).
| Time | Temp. | Humidity | Pressure | Rain* | Wind** | Luminosity | Snow |
|---|---|---|---|---|---|---|---|
| 1788053055 | 20° C | 50% | 1022.3 hPa | 0 mm | - | 43 W/m² | - |
| 1788052751 | 20.56° C | 50% | 1022.4 hPa | 0 mm | - | 52 W/m² | - |
| 1788052447 | 20.56° C | 49% | 1022.2 hPa | 0 mm | - | 59 W/m² | - |
| 1788052146 | 21.11° C | 47% | 1022.3 hPa | 0 mm | - | 82 W/m² | - |
| 1788051841 | 21.67° C | 48% | 1022.3 hPa | 0 mm | - | 159 W/m² | - |
| 1788051535 | 21.67° C | 47% | 1022.4 hPa | 0 mm | - | 126 W/m² | - |
| 1788051234 | 22.22° C | 46% | 1022.3 hPa | 0 mm | - | 295 W/m² | - |
| 1788050933 | 22.78° C | 46% | 1022.1 hPa | 0 mm | - | 327 W/m² | - |
| 1788050629 | 21.11° C | 49% | 1022.2 hPa | 0 mm | - | 309 W/m² | - |
| 1788050328 | 21.11° C | 50% | 1022.2 hPa | 0 mm | - | 316 W/m² | - |
| 1788050022 | 20° C | 52% | 1022.3 hPa | 0 mm | - | 86 W/m² | - |
| 1788049720 | 20° C | 57% | 1022.1 hPa | 0 mm | - | 75 W/m² | - |
| 1788049416 | 20° C | 59% | 1022.2 hPa | 0 mm | - | 61 W/m² | - |
| 1788049111 | 20° C | 59% | 1022.1 hPa | 0 mm | - | 50 W/m² | - |
| 1788048806 | 20° C | 58% | 1022.2 hPa | 0 mm | - | 59 W/m² | - |
| 1788048506 | 20° C | 58% | 1021.9 hPa | 0 mm | - | 70 W/m² | - |
| 1788048204 | 20° C | 59% | 1022.1 hPa | 0 mm | - | 200 W/m² | - |
| 1788047901 | 19.44° C | 60% | 1022 hPa | 0 mm | - | 82 W/m² | - |
| 1788047596 | 19.44° C | 60% | 1022.2 hPa | 0 mm | - | 57 W/m² | - |
| 1788047296 | 19.44° C | 60% | 1022.2 hPa | 0 mm | - | 60 W/m² | - |
| 1788046991 | 19.44° C | 61% | 1022.4 hPa | 0 mm | - | 52 W/m² | - |
| 1788046690 | 19.44° C | 61% | 1022.3 hPa | 0 mm | - | 54 W/m² | - |
| 1788046385 | 19.44° C | 61% | 1022.3 hPa | 0 mm | - | 38 W/m² | - |
| 1788046083 | 19.44° C | 61% | 1022.4 hPa | 0 mm | - | 31 W/m² | - |
| 1788045778 | 19.44° C | 61% | 1022.3 hPa | 0 mm | - | 37 W/m² | - |
* Rain latest hour (hover to see other rain measurements)
** Current wind speed in m/s (hover to see current wind gust speed)